createdAt,value
2022-08-25T00:00:22.778Z,3.05
2022-08-25T00:02:55.574Z,2.40
2022-08-25T00:05:18.847Z,2.90
2022-08-25T00:07:41.476Z,2.60
2022-08-25T00:10:04.934Z,2.67
2022-08-25T00:12:27.293Z,2.50
2022-08-25T00:14:49.570Z,2.53
2022-08-25T00:17:12.089Z,2.78
2022-08-25T00:19:35.764Z,2.92
2022-08-25T00:21:58.012Z,3.25
2022-08-25T00:24:21.509Z,2.40
2022-08-25T00:26:44.572Z,2.80
2022-08-25T00:29:07.096Z,3.15
2022-08-25T00:31:38.460Z,3.38
2022-08-25T00:34:01.359Z,3.33
2022-08-25T00:36:23.643Z,3.33
2022-08-25T00:38:47.019Z,2.97
2022-08-25T00:41:13.836Z,3.33
2022-08-25T00:43:42.432Z,2.97
2022-08-25T00:46:05.412Z,3.03
2022-08-25T00:48:27.801Z,3.42
2022-08-25T00:50:50.228Z,3.33
2022-08-25T00:53:13.271Z,3.20
2022-08-25T00:55:39.144Z,3.88
2022-08-25T00:58:05.264Z,3.30
2022-08-25T01:00:39.412Z,3.15
2022-08-25T01:03:01.919Z,3.17
2022-08-25T01:05:24.789Z,3.10
2022-08-25T01:07:47.225Z,2.97
2022-08-25T01:10:09.902Z,2.90
2022-08-25T01:12:32.183Z,3.03
2022-08-25T01:14:55.241Z,3.45
2022-08-25T01:17:17.712Z,3.53
2022-08-25T01:19:39.948Z,3.07
2022-08-25T01:22:02.447Z,3.20
2022-08-25T01:24:29.339Z,2.80
2022-08-25T01:26:51.793Z,3.20
2022-08-25T01:29:25.289Z,3.23
2022-08-25T01:31:48.452Z,3.10
2022-08-25T01:34:12.319Z,3.13
2022-08-25T01:36:35.588Z,3.13
2022-08-25T01:38:58.525Z,2.63
2022-08-25T01:41:27.495Z,3.30
2022-08-25T01:43:50.028Z,3.37
2022-08-25T01:46:12.809Z,3.53
2022-08-25T01:48:35.699Z,3.37
2022-08-25T01:50:57.991Z,3.70
2022-08-25T01:53:24.822Z,3.63
2022-08-25T01:55:55.297Z,3.83
2022-08-25T01:58:21.963Z,3.53
2022-08-25T02:00:51.356Z,3.57
2022-08-25T02:03:18.513Z,3.40
2022-08-25T02:05:41.341Z,3.43
2022-08-25T02:08:04.806Z,3.37
2022-08-25T02:10:27.436Z,3.27
2022-08-25T02:12:51.026Z,3.80
2022-08-25T02:15:16.701Z,3.60
2022-08-25T02:17:39.496Z,3.10
2022-08-25T02:20:01.819Z,3.97
2022-08-25T02:22:25.468Z,4.03
2022-08-25T02:24:48.127Z,3.87
2022-08-25T02:27:10.703Z,3.53
2022-08-25T02:29:33.870Z,3.77
2022-08-25T02:31:56.255Z,3.57
2022-08-25T02:34:18.545Z,3.70
2022-08-25T02:36:40.884Z,3.30
2022-08-25T02:39:03.148Z,3.50
2022-08-25T02:41:30.732Z,3.50
2022-08-25T02:43:53.977Z,3.20
2022-08-25T02:46:17.595Z,3.40
2022-08-25T02:48:40.477Z,3.20
2022-08-25T02:51:03.031Z,3.67
2022-08-25T02:53:25.258Z,3.20
2022-08-25T02:55:47.707Z,3.70
2022-08-25T02:58:10.368Z,3.63
2022-08-25T03:00:33.078Z,3.50
2022-08-25T03:02:56.125Z,3.50
2022-08-25T03:05:18.733Z,3.57
2022-08-25T03:07:41.324Z,3.40
2022-08-25T03:10:08.161Z,3.57
2022-08-25T03:12:31.089Z,3.90
2022-08-25T03:14:54.476Z,3.63
2022-08-25T03:17:17.113Z,3.30
2022-08-25T03:19:39.420Z,3.67
2022-08-25T03:22:01.692Z,3.63
2022-08-25T03:24:24.877Z,3.57
2022-08-25T03:26:56.101Z,4.07
2022-08-25T03:29:18.464Z,4.00
2022-08-25T03:31:41.063Z,4.33
2022-08-25T03:34:03.520Z,3.67
2022-08-25T03:36:26.157Z,3.63
2022-08-25T03:38:48.484Z,3.80
2022-08-25T03:41:18.133Z,4.03
2022-08-25T03:43:40.378Z,4.53
2022-08-25T03:46:02.856Z,3.93
2022-08-25T03:48:25.188Z,3.90
2022-08-25T03:50:51.717Z,3.97
2022-08-25T03:53:14.455Z,4.63
2022-08-25T03:55:36.718Z,3.97
2022-08-25T03:57:59.096Z,4.10
2022-08-25T04:00:22.434Z,3.90
2022-08-25T04:02:45.572Z,3.90
2022-08-25T04:05:08.351Z,3.90
2022-08-25T04:07:31.166Z,4.70
2022-08-25T04:09:55.917Z,4.10
2022-08-25T04:12:18.189Z,4.00
2022-08-25T04:14:42.397Z,3.70
2022-08-25T04:17:05.076Z,4.40
2022-08-25T04:19:27.402Z,3.70
2022-08-25T04:21:50.075Z,3.80
2022-08-25T04:24:13.550Z,3.87
2022-08-25T04:26:37.973Z,4.17
2022-08-25T04:29:00.889Z,4.37
2022-08-25T04:31:23.313Z,3.73
2022-08-25T04:33:48.872Z,3.70
2022-08-25T04:36:12.512Z,4.00
2022-08-25T04:38:34.909Z,4.40
2022-08-25T04:41:02.040Z,4.10
2022-08-25T04:43:24.320Z,4.43
2022-08-25T04:45:46.612Z,4.43
2022-08-25T04:48:09.958Z,4.33
2022-08-25T04:50:32.301Z,4.13
2022-08-25T04:52:55.585Z,4.53
2022-08-25T04:55:18.333Z,4.57
2022-08-25T04:57:41.025Z,4.50
2022-08-25T05:00:03.649Z,4.40
2022-08-25T05:02:25.965Z,4.33
2022-08-25T05:04:48.239Z,4.43
2022-08-25T05:07:10.492Z,4.57
2022-08-25T05:09:33.158Z,5.03
2022-08-25T05:11:55.632Z,4.30
2022-08-25T05:14:21.606Z,4.73
2022-08-25T05:16:48.078Z,3.90
2022-08-25T05:19:10.417Z,4.70
2022-08-25T05:21:33.384Z,4.00
2022-08-25T05:23:57.680Z,4.40
2022-08-25T05:26:21.953Z,4.17
2022-08-25T05:28:44.720Z,4.10
2022-08-25T05:31:08.673Z,4.23
2022-08-25T05:33:32.864Z,3.97
2022-08-25T05:35:55.820Z,4.30
2022-08-25T05:38:18.508Z,4.07
2022-08-25T05:40:40.932Z,3.77
2022-08-25T05:43:04.299Z,3.50
2022-08-25T05:45:26.694Z,4.00
2022-08-25T05:47:49.292Z,3.40
2022-08-25T05:50:11.786Z,3.75
2022-08-25T05:52:34.280Z,3.70
2022-08-25T05:54:56.545Z,3.42
2022-08-25T05:57:18.785Z,3.30
2022-08-25T05:59:41.256Z,3.22
2022-08-25T06:02:26.878Z,3.80
2022-08-25T06:04:49.131Z,3.80
2022-08-25T06:07:11.717Z,3.60
2022-08-25T06:09:33.958Z,3.35
2022-08-25T06:11:56.230Z,3.03
2022-08-25T06:14:18.553Z,2.95
2022-08-25T06:16:41.111Z,2.65
2022-08-25T06:19:03.431Z,2.30
2022-08-25T06:21:25.815Z,2.67
2022-08-25T06:23:49.211Z,2.22
2022-08-25T06:26:13.168Z,2.17
2022-08-25T06:28:43.970Z,2.60
2022-08-25T06:31:06.697Z,2.90
2022-08-25T06:33:29.337Z,2.03
2022-08-25T06:35:54.721Z,1.98
2022-08-25T06:38:16.968Z,2.05
2022-08-25T06:40:39.261Z,2.00
2022-08-25T06:43:01.539Z,1.95
2022-08-25T06:45:23.817Z,1.98
2022-08-25T06:47:46.068Z,1.75
2022-08-25T06:50:08.570Z,1.73
2022-08-25T06:52:31.044Z,2.20
2022-08-25T06:54:54.606Z,1.38
2022-08-25T06:57:17.173Z,2.10
2022-08-25T06:59:41.569Z,1.80
2022-08-25T07:02:04.835Z,1.70
2022-08-25T07:04:27.213Z,1.55
2022-08-25T07:06:49.549Z,2.00
2022-08-25T07:09:12.678Z,1.75
2022-08-25T07:11:35.495Z,1.98
2022-08-25T07:13:57.771Z,1.60
2022-08-25T07:16:20.727Z,1.70
2022-08-25T07:18:44.098Z,1.45
2022-08-25T07:21:08.759Z,1.30
2022-08-25T07:23:31.969Z,1.67
2022-08-25T07:25:54.583Z,1.73
2022-08-25T07:28:17.574Z,1.73
2022-08-25T07:30:40.235Z,1.60
2022-08-25T07:33:05.870Z,1.58
2022-08-25T07:35:37.827Z,1.40
2022-08-25T07:38:00.409Z,1.30
2022-08-25T07:40:24.586Z,1.30
2022-08-25T07:42:47.064Z,1.60
2022-08-25T07:45:10.869Z,1.60
2022-08-25T07:47:33.367Z,1.52
2022-08-25T07:49:55.742Z,1.58
2022-08-25T07:52:18.205Z,1.77
2022-08-25T07:54:40.759Z,1.50
2022-08-25T07:57:04.316Z,1.45
2022-08-25T07:59:27.265Z,1.30
2022-08-25T08:01:49.648Z,1.45
2022-08-25T08:04:12.191Z,1.83
2022-08-25T08:06:34.501Z,1.50
2022-08-25T08:08:57.999Z,1.48
2022-08-25T08:11:25.651Z,1.52
2022-08-25T08:13:48.893Z,1.70
2022-08-25T08:16:22.905Z,2.10
2022-08-25T08:18:46.815Z,1.90
2022-08-25T08:21:20.077Z,1.85
2022-08-25T08:23:42.502Z,2.22
2022-08-25T08:26:05.719Z,1.98
2022-08-25T08:28:28.168Z,1.63
2022-08-25T08:30:53.635Z,2.13
2022-08-25T08:33:16.373Z,1.95
2022-08-25T08:35:38.619Z,1.67
2022-08-25T08:38:00.938Z,2.13
2022-08-25T08:40:29.251Z,2.00
2022-08-25T08:42:57.733Z,2.03
2022-08-25T08:45:29.338Z,1.90
2022-08-25T08:48:01.236Z,2.30
2022-08-25T08:50:30.769Z,2.15
2022-08-25T08:53:15.022Z,2.35
2022-08-25T08:55:43.639Z,1.75
2022-08-25T08:58:11.820Z,1.80
2022-08-25T09:00:38.610Z,2.33
2022-08-25T09:03:06.352Z,2.20
2022-08-25T09:05:30.269Z,2.45
2022-08-25T09:07:57.944Z,2.10
2022-08-25T09:10:20.844Z,2.13
2022-08-25T09:12:55.214Z,2.15
2022-08-25T09:15:50.140Z,1.80
2022-08-25T09:18:24.355Z,2.20
2022-08-25T09:21:12.733Z,2.10
2022-08-25T09:23:39.891Z,2.10
2022-08-25T09:26:08.341Z,2.30
2022-08-25T09:28:40.243Z,1.98
2022-08-25T09:31:10.089Z,2.22
2022-08-25T09:33:35.503Z,2.50
2022-08-25T09:35:58.380Z,2.35
2022-08-25T09:38:21.525Z,2.35
2022-08-25T09:40:45.316Z,2.10
2022-08-25T09:43:22.513Z,2.20
2022-08-25T09:45:46.463Z,2.20
2022-08-25T09:48:29.465Z,2.38
2022-08-25T09:50:54.273Z,2.45
2022-08-25T09:53:18.739Z,2.50
2022-08-25T09:55:44.681Z,2.42
2022-08-25T09:58:16.141Z,2.38
2022-08-25T10:00:39.768Z,2.25
2022-08-25T10:03:07.853Z,2.15
2022-08-25T10:05:35.244Z,2.30
2022-08-25T10:07:59.509Z,2.38
2022-08-25T10:10:35.787Z,2.35
2022-08-25T10:13:00.917Z,2.40
2022-08-25T10:15:29.920Z,2.10
2022-08-25T10:17:53.116Z,2.40
2022-08-25T10:20:20.476Z,2.85
2022-08-25T10:22:44.709Z,2.20
2022-08-25T10:25:12.400Z,2.25
2022-08-25T10:27:43.750Z,2.20
2022-08-25T10:30:09.296Z,2.42
2022-08-25T10:32:37.856Z,2.20
2022-08-25T10:35:03.874Z,2.05
2022-08-25T10:37:36.091Z,1.85
2022-08-25T10:40:25.610Z,2.03
2022-08-25T10:42:47.839Z,2.33
2022-08-25T10:45:42.804Z,1.80
2022-08-25T10:48:05.173Z,1.90
2022-08-25T10:50:38.092Z,2.05
2022-08-25T10:53:06.304Z,1.67
2022-08-25T10:55:43.162Z,2.30
2022-08-25T10:58:13.624Z,2.40
2022-08-25T11:00:41.586Z,2.00
2022-08-25T11:03:13.560Z,1.67
2022-08-25T11:05:41.020Z,1.90
2022-08-25T11:08:09.146Z,2.00
2022-08-25T11:10:54.972Z,1.90
2022-08-25T11:13:20.196Z,1.80
2022-08-25T11:16:13.700Z,1.77
2022-08-25T11:18:39.093Z,1.55
2022-08-25T11:21:15.848Z,1.73
2022-08-25T11:23:54.116Z,1.70
2022-08-25T11:26:22.242Z,1.65
2022-08-25T11:28:48.501Z,1.60
2022-08-25T11:31:11.259Z,1.90
2022-08-25T11:33:33.746Z,1.83
2022-08-25T11:36:01.913Z,1.67
2022-08-25T11:38:24.450Z,2.20
2022-08-25T11:40:50.295Z,1.90
2022-08-25T11:43:22.646Z,1.70
2022-08-25T11:48:36.361Z,1.77
2022-08-25T11:50:58.820Z,1.80
2022-08-25T11:53:30.339Z,1.83
2022-08-25T11:55:53.929Z,1.58
2022-08-25T11:58:28.209Z,1.70
2022-08-25T12:01:00.234Z,1.55
2022-08-25T12:03:42.946Z,1.60
2022-08-25T12:06:21.320Z,1.52
2022-08-25T12:08:58.648Z,1.58
2022-08-25T12:11:44.367Z,1.55
2022-08-25T12:14:19.081Z,1.63
2022-08-25T12:16:54.083Z,1.60
2022-08-25T12:19:49.617Z,2.08
2022-08-25T12:22:12.083Z,1.40
2022-08-25T12:24:47.819Z,1.60
2022-08-25T12:27:10.730Z,1.90
2022-08-25T12:29:51.165Z,1.70
2022-08-25T12:32:13.589Z,1.70
2022-08-25T12:34:36.675Z,1.73
2022-08-25T12:37:01.068Z,1.40
2022-08-25T12:39:34.684Z,1.45
2022-08-25T12:44:49.945Z,1.52
2022-08-25T12:47:12.495Z,1.40
2022-08-25T12:49:36.317Z,1.50
2022-08-25T12:52:07.665Z,1.60
2022-08-25T12:54:42.417Z,1.52
2022-08-25T12:57:25.090Z,1.40
2022-08-25T12:59:54.464Z,1.67
2022-08-25T13:02:36.227Z,1.52
2022-08-25T13:05:01.796Z,1.48
2022-08-25T13:07:25.219Z,1.60
2022-08-25T13:10:01.902Z,1.55
2022-08-25T13:12:43.276Z,1.30
2022-08-25T13:15:06.770Z,1.40
2022-08-25T13:17:33.754Z,1.80
2022-08-25T13:20:13.145Z,1.50
2022-08-25T13:22:36.993Z,1.67
2022-08-25T13:25:01.190Z,1.67
2022-08-25T13:27:27.433Z,1.58
2022-08-25T13:29:54.206Z,1.70
2022-08-25T13:32:18.061Z,1.52
2022-08-25T13:34:42.758Z,1.60
2022-08-25T13:37:26.241Z,1.80
2022-08-25T13:39:56.073Z,1.58
2022-08-25T13:42:20.063Z,1.65
2022-08-25T13:44:51.711Z,1.45
2022-08-25T13:47:17.626Z,1.48
2022-08-25T13:49:42.181Z,1.58
2022-08-25T13:52:05.120Z,1.80
2022-08-25T13:54:31.864Z,1.70
2022-08-25T13:56:55.367Z,1.60
2022-08-25T13:59:25.245Z,1.65
2022-08-25T14:01:50.206Z,1.30
2022-08-25T14:04:21.859Z,1.60
2022-08-25T14:06:44.484Z,1.17
2022-08-25T14:09:14.066Z,1.25
2022-08-25T14:11:56.670Z,1.55
2022-08-25T14:14:25.053Z,1.10
2022-08-25T14:16:51.606Z,1.55
2022-08-25T14:19:20.291Z,1.10
2022-08-25T14:21:43.430Z,1.38
2022-08-25T14:24:06.771Z,1.90
2022-08-25T14:26:33.806Z,1.52
2022-08-25T14:28:56.887Z,1.52
2022-08-25T14:31:23.556Z,1.52
2022-08-25T14:33:57.720Z,1.58
2022-08-25T14:36:21.459Z,1.30
2022-08-25T14:38:47.910Z,1.52
2022-08-25T14:41:17.437Z,1.85
2022-08-25T14:43:43.459Z,1.50
2022-08-25T14:46:15.441Z,1.77
2022-08-25T14:48:46.779Z,1.52
2022-08-25T14:51:12.446Z,1.60
2022-08-25T14:53:35.230Z,1.60
2022-08-25T14:55:59.085Z,1.65
2022-08-25T14:58:22.370Z,1.50
2022-08-25T15:00:49.016Z,1.60
2022-08-25T15:03:14.114Z,1.52
2022-08-25T15:05:36.601Z,1.70
2022-08-25T15:08:18.537Z,1.33
2022-08-25T15:10:41.571Z,1.40
2022-08-25T15:13:06.384Z,1.67
2022-08-25T15:15:29.304Z,1.40
2022-08-25T15:17:51.781Z,1.30
2022-08-25T15:20:15.441Z,1.60
2022-08-25T15:22:38.738Z,1.60
2022-08-25T15:25:04.169Z,1.55
2022-08-25T15:27:26.604Z,1.50
2022-08-25T15:29:53.458Z,1.77
2022-08-25T15:32:17.257Z,1.50
2022-08-25T15:34:40.581Z,1.60
2022-08-25T15:37:08.671Z,1.45
2022-08-25T15:39:31.118Z,1.42
2022-08-25T15:41:53.704Z,1.70
2022-08-25T15:44:16.144Z,1.42
2022-08-25T15:46:39.423Z,1.50
2022-08-25T15:49:01.901Z,1.40
2022-08-25T15:51:24.637Z,1.50
2022-08-25T15:53:47.137Z,1.52
2022-08-25T15:56:09.810Z,1.73
2022-08-25T15:58:33.017Z,1.70
2022-08-25T16:00:56.465Z,1.80
2022-08-25T16:03:19.333Z,1.48
2022-08-25T16:05:48.085Z,1.45
2022-08-25T16:08:19.118Z,1.75
2022-08-25T16:10:43.431Z,1.40
2022-08-25T16:13:07.025Z,1.70
2022-08-25T16:15:31.932Z,1.52
2022-08-25T16:17:54.213Z,1.20
2022-08-25T16:20:17.237Z,1.40
2022-08-25T16:22:40.416Z,1.45
2022-08-25T16:25:02.955Z,1.40
2022-08-25T16:27:28.762Z,1.77
2022-08-25T16:30:01.125Z,1.60
2022-08-25T16:32:24.275Z,1.67
2022-08-25T16:34:51.188Z,1.95
2022-08-25T16:37:14.074Z,1.73
2022-08-25T16:39:39.833Z,1.65
2022-08-25T16:42:02.464Z,1.73
2022-08-25T16:44:24.871Z,1.73
2022-08-25T16:46:54.611Z,1.48
2022-08-25T16:49:17.485Z,1.27
2022-08-25T16:51:40.192Z,1.60
2022-08-25T16:54:32.296Z,1.30
2022-08-25T16:56:55.596Z,1.65
2022-08-25T16:59:18.028Z,1.23
2022-08-25T17:01:41.412Z,1.65
2022-08-25T17:04:05.392Z,1.48
2022-08-25T17:06:29.109Z,1.75
2022-08-25T17:08:52.794Z,1.38
2022-08-25T17:11:16.973Z,1.45
2022-08-25T17:13:44.432Z,1.35
2022-08-25T17:16:07.453Z,1.63
2022-08-25T17:18:30.008Z,1.48
2022-08-25T17:20:58.881Z,1.50
2022-08-25T17:23:21.285Z,1.40
2022-08-25T17:25:44.072Z,1.60
2022-08-25T17:28:07.447Z,1.58
2022-08-25T17:30:34.448Z,1.80
2022-08-25T17:32:56.937Z,1.70
2022-08-25T17:35:19.385Z,1.67
2022-08-25T17:37:43.189Z,1.88
2022-08-25T17:40:06.770Z,1.98
2022-08-25T17:42:30.307Z,2.05
2022-08-25T17:44:53.661Z,1.55
2022-08-25T17:47:16.028Z,1.65
2022-08-25T17:49:38.625Z,1.60
2022-08-25T17:52:05.352Z,1.55
2022-08-25T17:54:36.480Z,1.70
2022-08-25T17:56:59.252Z,1.60
2022-08-25T17:59:21.645Z,1.60
2022-08-25T18:01:44.518Z,1.20
2022-08-25T18:04:06.997Z,1.70
2022-08-25T18:06:39.644Z,1.83
2022-08-25T18:09:04.642Z,1.38
2022-08-25T18:11:26.980Z,1.80
2022-08-25T18:13:50.507Z,2.00
2022-08-25T18:16:13.406Z,2.00
2022-08-25T18:18:35.977Z,1.60
2022-08-25T18:20:58.214Z,1.90
2022-08-25T18:23:23.572Z,1.85
2022-08-25T18:25:46.159Z,1.70
2022-08-25T18:28:10.061Z,2.17
2022-08-25T18:30:32.338Z,1.92
2022-08-25T18:32:54.660Z,2.10
2022-08-25T18:35:17.445Z,2.00
2022-08-25T18:38:04.664Z,1.98
2022-08-25T18:40:28.089Z,2.40
2022-08-25T18:42:51.384Z,2.22
2022-08-25T18:45:14.315Z,2.03
2022-08-25T18:47:36.708Z,2.05
2022-08-25T18:50:04.555Z,2.20
2022-08-25T18:52:28.440Z,2.40
2022-08-25T18:54:51.785Z,2.22
2022-08-25T18:57:15.691Z,2.00
2022-08-25T18:59:38.035Z,2.13
2022-08-25T19:02:00.454Z,2.15
2022-08-25T19:04:31.510Z,2.45
2022-08-25T19:06:56.397Z,2.10
2022-08-25T19:09:24.260Z,2.15
2022-08-25T19:11:47.508Z,2.25
2022-08-25T19:14:12.692Z,1.95
2022-08-25T19:16:40.705Z,2.60
2022-08-25T19:19:03.951Z,2.03
2022-08-25T19:21:28.858Z,2.20
2022-08-25T19:23:51.598Z,2.53
2022-08-25T19:26:17.347Z,2.30
2022-08-25T19:28:40.958Z,2.58
2022-08-25T19:31:08.601Z,2.38
2022-08-25T19:33:44.633Z,2.70
2022-08-25T19:36:09.026Z,2.35
2022-08-25T19:38:33.918Z,8.77
2022-08-25T19:40:57.761Z,7.78
2022-08-25T19:43:20.189Z,6.85
2022-08-25T19:45:43.364Z,3.95
2022-08-25T19:48:06.139Z,4.38
2022-08-25T19:50:28.806Z,4.20
2022-08-25T19:52:51.806Z,4.32
2022-08-25T19:55:14.714Z,4.55
2022-08-25T19:57:42.893Z,3.95
2022-08-25T20:00:08.080Z,3.80
2022-08-25T20:02:34.472Z,4.38
2022-08-25T20:04:59.461Z,3.17
2022-08-25T20:07:23.978Z,3.00
2022-08-25T20:09:46.354Z,3.00
2022-08-25T20:12:10.295Z,3.10
2022-08-25T20:14:33.933Z,3.35
2022-08-25T20:16:57.224Z,3.20
2022-08-25T20:19:20.020Z,3.17
2022-08-25T20:21:43.986Z,2.80
2022-08-25T20:24:30.509Z,2.80
2022-08-25T20:26:53.404Z,2.53
2022-08-25T20:29:18.844Z,3.03
2022-08-25T20:31:41.258Z,2.25
2022-08-25T20:34:06.453Z,2.22
2022-08-25T20:36:29.221Z,2.70
2022-08-25T20:38:51.887Z,2.42
2022-08-25T20:41:14.617Z,2.95
2022-08-25T20:43:36.981Z,2.30
2022-08-25T20:46:00.869Z,2.50
2022-08-25T20:48:23.484Z,2.55
2022-08-25T20:50:57.475Z,2.72
2022-08-25T20:53:28.352Z,2.38
2022-08-25T20:55:50.935Z,2.60
2022-08-25T20:58:14.270Z,2.83
2022-08-25T21:00:36.743Z,2.60
2022-08-25T21:02:59.027Z,2.85
2022-08-25T21:05:23.193Z,2.97
2022-08-25T21:07:45.679Z,2.17
2022-08-25T21:10:10.414Z,2.70
2022-08-25T21:12:36.650Z,2.85
2022-08-25T21:14:59.032Z,2.63
2022-08-25T21:17:21.673Z,2.22
2022-08-25T21:19:44.244Z,3.00
2022-08-25T21:22:06.501Z,2.42
2022-08-25T21:24:29.124Z,2.55
2022-08-25T21:26:52.500Z,2.60
2022-08-25T21:29:15.199Z,2.90
2022-08-25T21:31:37.669Z,2.40
2022-08-25T21:34:02.017Z,2.90
2022-08-25T21:36:25.183Z,2.90
2022-08-25T21:38:47.817Z,2.60
2022-08-25T21:41:11.103Z,2.65
2022-08-25T21:43:33.392Z,2.65
2022-08-25T21:45:56.132Z,3.05
2022-08-25T21:48:19.448Z,2.75
2022-08-25T21:50:41.890Z,2.58
2022-08-25T21:53:05.014Z,3.00
2022-08-25T21:55:27.432Z,3.28
2022-08-25T21:57:49.769Z,2.92
2022-08-25T22:00:14.972Z,2.78
2022-08-25T22:02:37.396Z,2.85
2022-08-25T22:05:00.063Z,3.00
2022-08-25T22:07:24.731Z,2.75
2022-08-25T22:09:47.201Z,3.10
2022-08-25T22:12:10.033Z,2.85
2022-08-25T22:14:32.389Z,2.88
2022-08-25T22:16:55.410Z,3.42
2022-08-25T22:19:17.709Z,3.00
2022-08-25T22:21:49.418Z,2.75
2022-08-25T22:24:11.995Z,2.70
2022-08-25T22:26:34.797Z,2.92
2022-08-25T22:28:57.861Z,3.00
2022-08-25T22:31:20.864Z,3.10
2022-08-25T22:33:44.059Z,3.13
2022-08-25T22:36:13.974Z,3.40
2022-08-25T22:38:36.265Z,2.75
2022-08-25T22:41:02.411Z,3.10
2022-08-25T22:43:25.944Z,3.28
2022-08-25T22:45:48.292Z,2.97
2022-08-25T22:48:12.800Z,3.63
2022-08-25T22:50:36.043Z,3.45
2022-08-25T22:52:58.272Z,3.33
2022-08-25T22:55:21.991Z,3.60
2022-08-25T22:57:44.688Z,3.22
2022-08-25T23:00:10.512Z,2.88
2022-08-25T23:02:33.985Z,3.22
2022-08-25T23:04:57.184Z,3.10
2022-08-25T23:07:19.807Z,3.35
2022-08-25T23:09:42.327Z,2.88
2022-08-25T23:12:07.181Z,2.85
2022-08-25T23:14:34.138Z,3.15
2022-08-25T23:16:56.471Z,3.78
2022-08-25T23:19:19.394Z,3.08
2022-08-25T23:22:04.607Z,3.67
2022-08-25T23:24:29.938Z,3.80
2022-08-25T23:26:52.774Z,3.80
2022-08-25T23:29:17.727Z,3.28
2022-08-25T23:31:41.649Z,3.20
2022-08-25T23:34:10.143Z,3.78
2022-08-25T23:36:34.205Z,3.67
2022-08-25T23:38:57.357Z,2.88
2022-08-25T23:41:20.948Z,3.22
2022-08-25T23:43:45.273Z,2.80
2022-08-25T23:46:11.854Z,3.25
2022-08-25T23:48:34.916Z,3.50
2022-08-25T23:50:57.557Z,3.45
2022-08-25T23:53:20.775Z,3.47
2022-08-25T23:55:51.417Z,3.42
2022-08-25T23:58:16.449Z,3.63
